Time;durP1;ratioP1;P1;durP2;ratioP2;P2;SDS_P1;SDS_P2;PMS_P1;PMS_P2;Temp;Humidity;BMP_temperature;BMP_pressure;BME280_temperature;BME280_humidity;BME280_pressure;Samples;Min_cycle;Max_cycle;Signal;HPM_P1;HPM_P2
2023/03/27 00:00:25;;;;;;;2.50;2.23;;;;;;;;;;5017987;28;20941;-78
2023/03/27 00:02:51;;;;;;;2.37;1.90;;;;;;;;;;5018468;28;20193;-76
2023/03/27 00:05:19;;;;;;;3.40;2.50;;;;;;;;;;5025280;28;20182;-78
2023/03/27 00:07:47;;;;;;;3.13;2.40;;;;;;;;;;5022428;28;20194;-78
2023/03/27 00:10:13;;;;;;;2.93;2.30;;;;;;;;;;4998732;28;20202;-77
2023/03/27 00:12:40;;;;;;;3.07;2.20;;;;;;;;;;5020445;28;20257;-77
2023/03/27 00:15:07;;;;;;;2.67;2.20;;;;;;;;;;5022342;28;20182;-78
2023/03/27 00:17:33;;;;;;;5.97;2.57;;;;;;;;;;5018712;28;20739;-75
2023/03/27 00:20:00;;;;;;;3.03;2.57;;;;;;;;;;5019549;28;20214;-76
2023/03/27 00:22:28;;;;;;;3.30;2.60;;;;;;;;;;5022982;28;20289;-76
2023/03/27 00:24:55;;;;;;;2.70;2.40;;;;;;;;;;5018363;28;20183;-78
2023/03/27 00:27:21;;;;;;;4.70;2.97;;;;;;;;;;5003360;28;20186;-78
2023/03/27 00:29:47;;;;;;;7.70;3.43;;;;;;;;;;5024610;28;20221;-75
2023/03/27 00:32:13;;;;;;;4.97;3.10;;;;;;;;;;5023132;28;20190;-77
2023/03/27 00:34:39;;;;;;;5.07;3.53;;;;;;;;;;5007755;28;20183;-76
2023/03/27 00:37:06;;;;;;;7.83;3.80;;;;;;;;;;5013684;28;20568;-75
2023/03/27 00:39:32;;;;;;;8.13;4.00;;;;;;;;;;5004060;28;20341;-78
2023/03/27 00:41:58;;;;;;;8.53;3.87;;;;;;;;;;5022069;28;20183;-78
2023/03/27 00:44:29;;;;;;;8.53;3.53;;;;;;;;;;5023888;28;20186;-77
2023/03/27 00:46:56;;;;;;;9.67;3.93;;;;;;;;;;5003888;28;20555;-76
2023/03/27 00:49:26;;;;;;;9.07;4.07;;;;;;;;;;4978162;28;20203;-78
2023/03/27 00:51:52;;;;;;;8.60;3.67;;;;;;;;;;5018392;28;20194;-76
2023/03/27 00:54:25;;;;;;;10.50;3.80;;;;;;;;;;5000918;28;20671;-78
2023/03/27 00:56:52;;;;;;;12.63;3.50;;;;;;;;;;5020420;28;20211;-77
2023/03/27 00:59:21;;;;;;;11.17;3.60;;;;;;;;;;5020872;28;20990;-75
2023/03/27 01:01:48;;;;;;;11.27;3.60;;;;;;;;;;5017460;28;20588;-78
2023/03/27 01:04:19;;;;;;;9.43;3.90;;;;;;;;;;5002026;28;20241;-77
2023/03/27 01:06:45;;;;;;;8.30;3.70;;;;;;;;;;5000980;28;20183;-77
2023/03/27 01:09:12;;;;;;;10.53;3.60;;;;;;;;;;4985522;28;20278;-78
2023/03/27 01:11:58;;;;;;;10.97;3.50;;;;;;;;;;5001099;28;21355;-78
2023/03/27 01:14:33;;;;;;;10.00;3.80;;;;;;;;;;5022494;28;20194;-76
2023/03/27 01:17:11;;;;;;;11.33;3.73;;;;;;;;;;5017563;28;20633;-78
2023/03/27 01:19:41;;;;;;;7.30;3.27;;;;;;;;;;5007383;28;20210;-76
2023/03/27 01:22:22;;;;;;;8.60;3.53;;;;;;;;;;4993633;28;20191;-75
2023/03/27 01:24:55;;;;;;;6.83;3.10;;;;;;;;;;5022913;28;20662;-75
2023/03/27 01:27:36;;;;;;;10.07;3.57;;;;;;;;;;5020619;28;20183;-77
2023/03/27 01:30:03;;;;;;;14.10;3.30;;;;;;;;;;5005918;28;20602;-78
2023/03/27 01:33:09;;;;;;;9.93;3.60;;;;;;;;;;5011514;28;20186;-78
2023/03/27 01:35:59;;;;;;;10.90;3.60;;;;;;;;;;4936647;28;20185;-75
2023/03/27 01:38:28;;;;;;;9.20;3.50;;;;;;;;;;4926807;28;20797;-78
2023/03/27 01:41:04;;;;;;;10.53;3.87;;;;;;;;;;4980798;28;20218;-77
2023/03/27 01:43:34;;;;;;;9.57;3.53;;;;;;;;;;5017312;28;20212;-76
2023/03/27 01:46:27;;;;;;;12.60;4.00;;;;;;;;;;5024236;28;20194;-78
2023/03/27 01:49:00;;;;;;;17.93;3.87;;;;;;;;;;5018821;28;20193;-77
2023/03/27 01:51:35;;;;;;;9.50;3.50;;;;;;;;;;4997952;28;20202;-78
2023/03/27 01:54:04;;;;;;;11.80;3.70;;;;;;;;;;5019885;28;20194;-77
2023/03/27 01:56:36;;;;;;;14.80;4.27;;;;;;;;;;5013543;28;20792;-78
2023/03/27 01:59:15;;;;;;;9.17;3.00;;;;;;;;;;5015034;28;20189;-77
2023/03/27 02:01:45;;;;;;;14.30;2.90;;;;;;;;;;5014938;28;20243;-78
2023/03/27 02:04:14;;;;;;;11.57;2.90;;;;;;;;;;5015687;28;20248;-78
2023/03/27 02:06:44;;;;;;;10.77;3.13;;;;;;;;;;5013163;28;20239;-77
2023/03/27 02:09:14;;;;;;;13.30;3.77;;;;;;;;;;5029178;28;20186;-78
2023/03/27 02:11:47;;;;;;;10.40;2.70;;;;;;;;;;5010268;28;20460;-78
2023/03/27 02:14:17;;;;;;;7.80;2.67;;;;;;;;;;5021811;28;20265;-77
2023/03/27 02:16:45;;;;;;;12.57;3.20;;;;;;;;;;5010919;28;20253;-77
2023/03/27 02:19:14;;;;;;;9.17;2.97;;;;;;;;;;5013761;28;20182;-76
2023/03/27 02:21:40;;;;;;;9.63;2.97;;;;;;;;;;5025896;28;20187;-78
2023/03/27 02:24:07;;;;;;;14.53;3.40;;;;;;;;;;5013272;28;20216;-74
2023/03/27 02:26:34;;;;;;;16.00;3.33;;;;;;;;;;5023146;28;20194;-77
2023/03/27 02:29:00;;;;;;;8.80;2.57;;;;;;;;;;4982738;28;20705;-74
2023/03/27 02:31:26;;;;;;;13.40;3.03;;;;;;;;;;4981778;28;20211;-78
2023/03/27 02:34:12;;;;;;;10.03;2.50;;;;;;;;;;5013432;28;20190;-75
2023/03/27 02:36:40;;;;;;;8.83;2.47;;;;;;;;;;4983567;28;20347;-76
2023/03/27 02:39:10;;;;;;;11.73;2.77;;;;;;;;;;5001122;28;20190;-74
2023/03/27 02:41:40;;;;;;;9.90;2.63;;;;;;;;;;4986721;28;20783;-77
2023/03/27 02:44:31;;;;;;;14.13;3.00;;;;;;;;;;5029066;28;20190;-78
2023/03/27 02:47:07;;;;;;;11.27;2.50;;;;;;;;;;5008518;28;20194;-77
2023/03/27 02:49:50;;;;;;;9.30;2.40;;;;;;;;;;5007452;28;20301;-78
2023/03/27 02:52:40;;;;;;;12.33;2.70;;;;;;;;;;4994087;28;20843;-76
2023/03/27 02:55:10;;;;;;;8.47;2.53;;;;;;;;;;4996605;28;20206;-78
2023/03/27 02:57:38;;;;;;;8.03;2.63;;;;;;;;;;5006072;28;20209;-76
2023/03/27 03:00:24;;;;;;;8.87;2.33;;;;;;;;;;5026454;28;20200;-77
2023/03/27 03:03:26;;;;;;;10.00;2.40;;;;;;;;;;4976980;28;20451;-76
2023/03/27 03:05:56;;;;;;;9.30;2.20;;;;;;;;;;5007294;28;20191;-77
2023/03/27 03:08:23;;;;;;;10.17;2.17;;;;;;;;;;5021298;28;20208;-75
2023/03/27 03:10:49;;;;;;;7.53;2.20;;;;;;;;;;4996969;28;20198;-76
2023/03/27 03:13:16;;;;;;;11.17;2.37;;;;;;;;;;4989795;28;20607;-77
2023/03/27 03:15:44;;;;;;;9.53;2.30;;;;;;;;;;5006591;28;20202;-77
2023/03/27 03:18:11;;;;;;;8.83;2.20;;;;;;;;;;5028523;28;20186;-75
2023/03/27 03:20:38;;;;;;;10.17;2.50;;;;;;;;;;5009312;28;20217;-77
2023/03/27 03:23:05;;;;;;;9.17;2.30;;;;;;;;;;5009224;28;20226;-76
2023/03/27 03:25:32;;;;;;;9.40;2.37;;;;;;;;;;4992334;28;21709;-77
2023/03/27 03:27:59;;;;;;;11.23;2.60;;;;;;;;;;5002422;28;20257;-76
2023/03/27 03:30:26;;;;;;;11.20;2.90;;;;;;;;;;5007289;28;20202;-77
2023/03/27 03:33:00;;;;;;;11.70;3.37;;;;;;;;;;5025289;28;20213;-78
2023/03/27 03:35:27;;;;;;;7.03;2.60;;;;;;;;;;5014378;28;20651;-78
2023/03/27 03:37:58;;;;;;;12.30;3.77;;;;;;;;;;5008180;28;20210;-75
2023/03/27 03:40:24;;;;;;;6.20;2.90;;;;;;;;;;5010573;28;20549;-77
2023/03/27 03:42:55;;;;;;;12.37;3.77;;;;;;;;;;4993012;28;20182;-77
2023/03/27 03:45:25;;;;;;;10.80;3.27;;;;;;;;;;5008656;28;20193;-78
2023/03/27 03:47:51;;;;;;;10.97;2.97;;;;;;;;;;5007530;28;20183;-78
2023/03/27 03:50:17;;;;;;;11.07;2.70;;;;;;;;;;5003866;28;20552;-78
2023/03/27 03:52:45;;;;;;;9.80;3.03;;;;;;;;;;5000913;28;20186;-75
2023/03/27 03:55:11;;;;;;;7.00;2.30;;;;;;;;;;4984465;28;20572;-77
2023/03/27 03:57:38;;;;;;;8.40;2.30;;;;;;;;;;5021236;28;20217;-78
2023/03/27 04:00:18;;;;;;;6.93;1.90;;;;;;;;;;5004710;28;20225;-77
2023/03/27 04:02:50;;;;;;;8.93;2.20;;;;;;;;;;5012425;28;20185;-77
2023/03/27 04:05:17;;;;;;;10.07;2.50;;;;;;;;;;5018953;28;20242;-75
2023/03/27 04:07:44;;;;;;;10.17;2.93;;;;;;;;;;5003391;28;20190;-76
2023/03/27 04:10:29;;;;;;;10.10;2.97;;;;;;;;;;5004122;28;20214;-76
2023/03/27 04:12:58;;;;;;;10.73;2.77;;;;;;;;;;5013233;28;20198;-77
2023/03/27 04:15:28;;;;;;;9.40;2.33;;;;;;;;;;5006693;28;20214;-77
2023/03/27 04:18:09;;;;;;;7.27;2.40;;;;;;;;;;5000618;28;20205;-76
2023/03/27 04:20:37;;;;;;;7.20;2.17;;;;;;;;;;4990270;28;20206;-76
2023/03/27 04:23:07;;;;;;;6.23;2.40;;;;;;;;;;4986503;28;20763;-77
2023/03/27 04:25:37;;;;;;;8.23;2.30;;;;;;;;;;5003670;28;20182;-78
2023/03/27 04:28:04;;;;;;;11.13;2.53;;;;;;;;;;5001528;28;20193;-76
2023/03/27 04:30:37;;;;;;;8.67;2.43;;;;;;;;;;4988327;28;20211;-77
2023/03/27 04:33:22;;;;;;;9.30;3.20;;;;;;;;;;5023136;28;20186;-76
2023/03/27 04:35:59;;;;;;;10.27;3.37;;;;;;;;;;4991710;28;20567;-74
2023/03/27 04:38:30;;;;;;;11.30;3.30;;;;;;;;;;5008663;28;20171;-76
2023/03/27 04:40:58;;;;;;;8.80;2.60;;;;;;;;;;5007658;28;20733;-77
2023/03/27 04:43:27;;;;;;;5.00;2.60;;;;;;;;;;5025441;28;20229;-77
2023/03/27 04:45:54;;;;;;;12.20;3.03;;;;;;;;;;5004112;28;20175;-76
2023/03/27 04:48:21;;;;;;;11.27;2.37;;;;;;;;;;5000336;28;20179;-75
2023/03/27 04:50:51;;;;;;;8.90;2.70;;;;;;;;;;5007322;28;20747;-77
2023/03/27 04:53:31;;;;;;;7.83;2.77;;;;;;;;;;5000445;28;20171;-74
2023/03/27 04:56:00;;;;;;;11.10;2.43;;;;;;;;;;5000203;28;20206;-77
2023/03/27 04:58:27;;;;;;;6.93;2.40;;;;;;;;;;4991355;28;20416;-76
2023/03/27 05:00:54;;;;;;;7.53;2.17;;;;;;;;;;5012214;28;20198;-77
2023/03/27 05:03:47;;;;;;;6.50;2.10;;;;;;;;;;5000646;28;20281;-77
2023/03/27 05:06:27;;;;;;;10.13;2.47;;;;;;;;;;5009332;28;20217;-76
2023/03/27 05:08:53;;;;;;;10.90;2.70;;;;;;;;;;5005391;28;20195;-77
2023/03/27 05:11:25;;;;;;;12.13;3.17;;;;;;;;;;5010699;28;20217;-76
2023/03/27 05:13:52;;;;;;;9.93;2.57;;;;;;;;;;5010009;28;20217;-76
2023/03/27 05:16:23;;;;;;;8.20;2.17;;;;;;;;;;5008196;28;20285;-75
2023/03/27 05:18:53;;;;;;;6.93;2.40;;;;;;;;;;5009179;28;20193;-75
2023/03/27 05:21:19;;;;;;;7.57;2.30;;;;;;;;;;5009312;28;20202;-75
2023/03/27 05:23:46;;;;;;;11.80;3.00;;;;;;;;;;4980341;28;20592;-74
2023/03/27 05:26:12;;;;;;;7.90;3.10;;;;;;;;;;5007600;28;20186;-80
2023/03/27 05:28:50;;;;;;;6.73;3.27;;;;;;;;;;5009783;28;20872;-78
2023/03/27 05:31:16;;;;;;;7.40;2.77;;;;;;;;;;5004317;28;20278;-78
2023/03/27 05:33:57;;;;;;;11.43;3.47;;;;;;;;;;5010741;28;20187;-74
2023/03/27 05:36:28;;;;;;;8.73;2.70;;;;;;;;;;4991485;28;20253;-76
2023/03/27 05:38:58;;;;;;;7.40;2.70;;;;;;;;;;4993305;28;20185;-75
2023/03/27 05:41:34;;;;;;;7.17;2.73;;;;;;;;;;5004074;28;20842;-76
2023/03/27 05:44:02;;;;;;;7.70;2.63;;;;;;;;;;5019589;28;20174;-76
2023/03/27 05:46:33;;;;;;;7.30;2.47;;;;;;;;;;5004762;28;20191;-76
2023/03/27 05:49:07;;;;;;;6.27;2.17;;;;;;;;;;5006701;28;20232;-76
2023/03/27 05:51:33;;;;;;;10.00;2.40;;;;;;;;;;5001252;28;20267;-76
2023/03/27 05:53:59;;;;;;;8.37;3.03;;;;;;;;;;5023297;28;20844;-76
2023/03/27 05:56:35;;;;;;;10.70;3.87;;;;;;;;;;4973073;28;20237;-77
2023/03/27 05:59:03;;;;;;;9.43;3.57;;;;;;;;;;5002798;28;20186;-73
2023/03/27 06:01:33;;;;;;;7.43;3.20;;;;;;;;;;5005402;28;20237;-75
2023/03/27 06:04:00;;;;;;;10.77;3.77;;;;;;;;;;5005314;28;20657;-75
2023/03/27 06:06:31;;;;;;;8.47;2.83;;;;;;;;;;5013401;28;20183;-75
2023/03/27 06:08:58;;;;;;;7.90;3.10;;;;;;;;;;4995569;28;20187;-75
2023/03/27 06:11:25;;;;;;;7.77;2.43;;;;;;;;;;5004353;28;20213;-75
2023/03/27 06:13:52;;;;;;;9.20;2.50;;;;;;;;;;5021437;28;20266;-75
2023/03/27 06:16:24;;;;;;;9.63;2.70;;;;;;;;;;5004433;28;20229;-74
2023/03/27 06:19:19;;;;;;;8.37;2.90;;;;;;;;;;5012720;28;20190;-76
2023/03/27 06:21:50;;;;;;;7.60;2.50;;;;;;;;;;5025682;28;20736;-75
2023/03/27 06:24:16;;;;;;;8.80;3.17;;;;;;;;;;5011332;28;20579;-75
2023/03/27 06:26:43;;;;;;;9.63;2.50;;;;;;;;;;5007524;28;20547;-76
2023/03/27 06:29:10;;;;;;;9.43;2.53;;;;;;;;;;5027912;28;20197;-76
2023/03/27 06:31:44;;;;;;;8.50;2.47;;;;;;;;;;5010696;28;20288;-75
2023/03/27 06:34:16;;;;;;;9.53;2.80;;;;;;;;;;5007387;28;20676;-76
2023/03/27 06:36:54;;;;;;;8.00;2.67;;;;;;;;;;5015610;28;20300;-76
2023/03/27 06:39:21;;;;;;;10.00;2.60;;;;;;;;;;4990543;28;20183;-75
2023/03/27 06:41:49;;;;;;;11.00;2.80;;;;;;;;;;5005911;28;20179;-76
2023/03/27 06:44:30;;;;;;;8.13;3.03;;;;;;;;;;4991608;28;20224;-75
2023/03/27 06:47:11;;;;;;;8.70;2.90;;;;;;;;;;5008337;28;20190;-75
2023/03/27 06:49:57;;;;;;;9.10;2.73;;;;;;;;;;4993763;28;20214;-76
2023/03/27 06:52:24;;;;;;;9.27;2.57;;;;;;;;;;5007506;28;20179;-76
2023/03/27 06:54:55;;;;;;;7.67;2.40;;;;;;;;;;5007789;28;20552;-76
2023/03/27 06:57:22;;;;;;;11.47;2.70;;;;;;;;;;5004603;28;20198;-76
2023/03/27 06:59:52;;;;;;;7.47;2.17;;;;;;;;;;5007335;28;20206;-76
2023/03/27 07:02:22;;;;;;;9.73;2.70;;;;;;;;;;5004587;28;20482;-76
2023/03/27 07:05:11;;;;;;;11.00;2.60;;;;;;;;;;4995107;28;20252;-75
2023/03/27 07:07:39;;;;;;;11.40;2.87;;;;;;;;;;4994833;28;20186;-75
2023/03/27 07:10:06;;;;;;;10.07;2.70;;;;;;;;;;4987083;28;20369;-75
2023/03/27 07:12:32;;;;;;;11.43;2.30;;;;;;;;;;5027438;28;20194;-75
2023/03/27 07:14:59;;;;;;;14.37;2.20;;;;;;;;;;5009223;28;20187;-76
2023/03/27 07:17:28;;;;;;;10.83;2.80;;;;;;;;;;4996709;28;20204;-75
2023/03/27 07:19:56;;;;;;;5.30;2.20;;;;;;;;;;4991855;28;20209;-76
2023/03/27 07:22:27;;;;;;;7.03;2.30;;;;;;;;;;5005296;28;20179;-76
2023/03/27 07:24:55;;;;;;;10.33;2.40;;;;;;;;;;5001021;28;20764;-76
2023/03/27 07:27:23;;;;;;;9.63;2.77;;;;;;;;;;5008422;28;20282;-76
2023/03/27 07:29:49;;;;;;;8.60;2.40;;;;;;;;;;5003518;28;20295;-76
2023/03/27 07:32:19;;;;;;;9.93;2.57;;;;;;;;;;5007628;28;20191;-76
2023/03/27 07:34:50;;;;;;;12.60;2.30;;;;;;;;;;5005260;28;20236;-76
2023/03/27 07:37:28;;;;;;;7.57;2.07;;;;;;;;;;5023641;28;20245;-76
2023/03/27 07:40:32;;;;;;;7.37;2.20;;;;;;;;;;4982098;28;20219;-76
2023/03/27 07:43:18;;;;;;;6.53;2.20;;;;;;;;;;5003389;28;20228;-75
2023/03/27 07:45:45;;;;;;;8.97;2.10;;;;;;;;;;5006521;28;20174;-77
2023/03/27 07:48:15;;;;;;;9.63;2.50;;;;;;;;;;5006159;28;20187;-76
2023/03/27 07:50:42;;;;;;;6.97;2.00;;;;;;;;;;5006543;28;20210;-76
2023/03/27 07:53:09;;;;;;;8.63;2.30;;;;;;;;;;4991863;28;20537;-76
2023/03/27 07:55:40;;;;;;;12.77;2.50;;;;;;;;;;5008741;28;20202;-76
2023/03/27 07:58:06;;;;;;;7.80;2.20;;;;;;;;;;5008527;28;20214;-76
2023/03/27 08:00:34;;;;;;;7.07;2.40;;;;;;;;;;5006846;28;20822;-76
2023/03/27 08:03:12;;;;;;;7.90;2.17;;;;;;;;;;5005612;28;20186;-76
2023/03/27 08:05:44;;;;;;;6.37;2.20;;;;;;;;;;5009702;28;20185;-76
2023/03/27 08:08:12;;;;;;;14.17;2.60;;;;;;;;;;5009432;28;20657;-76
2023/03/27 08:11:06;;;;;;;7.70;2.20;;;;;;;;;;5011231;28;20227;-76
2023/03/27 08:13:38;;;;;;;11.07;2.30;;;;;;;;;;5003280;28;20234;-76
2023/03/27 08:16:13;;;;;;;7.93;2.23;;;;;;;;;;5012660;28;20269;-76
2023/03/27 08:18:41;;;;;;;9.23;2.40;;;;;;;;;;5004927;28;20179;-75
2023/03/27 08:21:09;;;;;;;6.40;2.13;;;;;;;;;;5007022;28;20756;-80
2023/03/27 08:23:37;;;;;;;10.43;2.10;;;;;;;;;;5010066;28;20217;-78
2023/03/27 08:26:25;;;;;;;8.30;2.27;;;;;;;;;;5026162;28;20688;-75
2023/03/27 08:28:57;;;;;;;10.80;2.43;;;;;;;;;;5005853;28;20187;-75
2023/03/27 08:31:28;;;;;;;7.53;2.20;;;;;;;;;;5011024;28;20232;-76
2023/03/27 08:33:58;;;;;;;7.20;2.37;;;;;;;;;;5001480;28;20628;-76
2023/03/27 08:36:27;;;;;;;10.10;2.23;;;;;;;;;;5008022;28;20269;-75
2023/03/27 08:38:54;;;;;;;8.97;2.17;;;;;;;;;;5018627;28;20268;-74
2023/03/27 08:41:37;;;;;;;7.93;2.30;;;;;;;;;;5004834;28;21148;-75
2023/03/27 08:44:17;;;;;;;6.30;1.77;;;;;;;;;;4999953;28;20252;-76
2023/03/27 08:46:59;;;;;;;9.30;2.20;;;;;;;;;;5016243;28;20922;-76
2023/03/27 08:49:40;;;;;;;7.10;2.37;;;;;;;;;;5008572;28;20202;-76
2023/03/27 08:52:29;;;;;;;8.77;2.30;;;;;;;;;;4991447;28;20608;-76
2023/03/27 08:55:00;;;;;;;4.27;1.60;;;;;;;;;;5004996;28;20196;-76
2023/03/27 08:57:36;;;;;;;7.70;2.00;;;;;;;;;;5032449;28;20206;-74
2023/03/27 09:00:20;;;;;;;11.53;2.13;;;;;;;;;;5007408;28;20203;-72
2023/03/27 09:03:03;;;;;;;10.90;2.03;;;;;;;;;;5024998;28;20174;-72
2023/03/27 09:05:35;;;;;;;7.60;2.33;;;;;;;;;;5004755;28;20278;-72
2023/03/27 09:08:14;;;;;;;5.60;1.80;;;;;;;;;;5007112;28;20213;-73
2023/03/27 09:10:45;;;;;;;5.73;1.77;;;;;;;;;;5024635;28;20237;-72
2023/03/27 09:13:25;;;;;;;9.73;1.90;;;;;;;;;;5022923;28;20186;-72
2023/03/27 09:15:59;;;;;;;7.63;2.07;;;;;;;;;;5002101;28;20181;-72
2023/03/27 09:18:29;;;;;;;7.37;2.00;;;;;;;;;;5010302;28;20203;-72
2023/03/27 09:20:58;;;;;;;7.13;1.83;;;;;;;;;;5019785;28;20281;-72
2023/03/27 09:23:25;;;;;;;7.60;1.90;;;;;;;;;;5011346;28;20241;-71
2023/03/27 09:26:21;;;;;;;4.00;1.60;;;;;;;;;;5031945;28;20202;-73
2023/03/27 09:29:18;;;;;;;4.53;1.50;;;;;;;;;;5019531;28;20292;-72
2023/03/27 09:31:51;;;;;;;3.30;1.40;;;;;;;;;;5013622;28;20182;-72
2023/03/27 09:34:24;;;;;;;7.80;1.87;;;;;;;;;;5011157;28;20189;-72
2023/03/27 09:36:50;;;;;;;6.07;1.70;;;;;;;;;;5034757;28;20212;-77
2023/03/27 09:39:20;;;;;;;6.37;1.73;;;;;;;;;;5009541;28;20830;-77
2023/03/27 09:41:49;;;;;;;6.10;1.70;;;;;;;;;;5013841;28;20562;-76
2023/03/27 09:44:24;;;;;;;4.87;1.70;;;;;;;;;;5012562;28;20716;-77
2023/03/27 09:46:53;;;;;;;10.20;1.70;;;;;;;;;;4998244;28;20173;-77
2023/03/27 09:49:20;;;;;;;9.83;1.93;;;;;;;;;;5035108;28;20205;-76
2023/03/27 09:51:53;;;;;;;8.97;1.60;;;;;;;;;;5014498;28;20186;-77
2023/03/27 09:54:48;;;;;;;4.30;1.50;;;;;;;;;;5017046;28;20220;-77
2023/03/27 09:57:15;;;;;;;7.20;1.80;;;;;;;;;;5022735;28;20649;-77
2023/03/27 09:59:55;;;;;;;5.90;1.50;;;;;;;;;;5021294;28;20297;-77
2023/03/27 10:02:22;;;;;;;7.20;2.07;;;;;;;;;;5019484;28;20189;-77
2023/03/27 10:04:58;;;;;;;5.40;1.60;;;;;;;;;;5024521;28;20189;-76
2023/03/27 10:07:29;;;;;;;5.50;1.70;;;;;;;;;;5025516;28;20279;-77
2023/03/27 10:10:19;;;;;;;8.07;1.90;;;;;;;;;;5020169;28;20744;-77
2023/03/27 10:13:05;;;;;;;7.57;1.80;;;;;;;;;;5020456;28;20194;-77
2023/03/27 10:15:37;;;;;;;5.97;1.97;;;;;;;;;;5021241;28;20198;-77
2023/03/27 10:18:26;;;;;;;9.43;1.87;;;;;;;;;;5016661;28;20282;-77
2023/03/27 10:20:57;;;;;;;7.07;2.00;;;;;;;;;;4993320;28;20305;-76
2023/03/27 10:23:27;;;;;;;13.60;1.90;;;;;;;;;;5009963;28;20187;-77
2023/03/27 10:25:57;;;;;;;7.47;2.03;;;;;;;;;;5000036;28;20225;-77
2023/03/27 10:28:37;;;;;;;7.43;1.47;;;;;;;;;;5010077;28;20268;-76
2023/03/27 10:31:36;;;;;;;7.73;1.70;;;;;;;;;;4989426;28;20202;-75
2023/03/27 10:34:27;;;;;;;8.30;1.63;;;;;;;;;;5030231;28;20186;-75
2023/03/27 10:37:03;;;;;;;8.73;1.90;;;;;;;;;;5024485;28;20388;-75
2023/03/27 10:39:33;;;;;;;5.90;1.60;;;;;;;;;;5009623;28;20207;-75
2023/03/27 10:42:16;;;;;;;6.97;1.60;;;;;;;;;;5015398;28;20190;-75
2023/03/27 10:44:48;;;;;;;6.50;1.70;;;;;;;;;;5017706;28;20221;-75
2023/03/27 10:47:22;;;;;;;4.37;1.40;;;;;;;;;;5016862;28;20244;-75
2023/03/27 10:50:08;;;;;;;8.57;1.70;;;;;;;;;;5013886;28;20223;-75
2023/03/27 10:53:00;;;;;;;3.90;1.37;;;;;;;;;;5020694;28;20274;-75
2023/03/27 10:55:58;;;;;;;8.80;1.80;;;;;;;;;;5012695;28;20222;-76
2023/03/27 10:58:30;;;;;;;6.73;1.70;;;;;;;;;;5015414;28;20230;-75
2023/03/27 11:01:11;;;;;;;10.13;1.90;;;;;;;;;;5019554;28;20210;-76
2023/03/27 11:03:49;;;;;;;7.47;1.60;;;;;;;;;;5021064;28;20185;-77
2023/03/27 11:06:18;;;;;;;7.53;1.83;;;;;;;;;;5018845;28;20283;-75
2023/03/27 11:09:04;;;;;;;7.80;1.77;;;;;;;;;;5015878;28;20249;-72
2023/03/27 11:11:39;;;;;;;8.10;1.73;;;;;;;;;;5013977;28;20273;-77
2023/03/27 11:14:26;;;;;;;8.60;2.07;;;;;;;;;;5036540;28;20320;-78
2023/03/27 11:16:57;;;;;;;7.80;2.13;;;;;;;;;;4983926;28;20226;-79
2023/03/27 11:19:57;;;;;;;6.83;2.00;;;;;;;;;;5020786;28;20217;-77
2023/03/27 11:22:29;;;;;;;6.53;2.00;;;;;;;;;;5038070;28;20185;-81
2023/03/27 11:25:04;;;;;;;6.77;1.80;;;;;;;;;;5006131;28;20276;-77
2023/03/27 11:27:37;;;;;;;4.70;2.00;;;;;;;;;;5024962;28;20185;-80
2023/03/27 11:30:07;;;;;;;5.57;1.87;;;;;;;;;;4998329;28;20217;-77
2023/03/27 11:32:44;;;;;;;5.60;2.00;;;;;;;;;;5022806;28;20197;-81
2023/03/27 11:35:13;;;;;;;3.90;1.67;;;;;;;;;;5004361;28;20261;-80
2023/03/27 11:38:00;;;;;;;4.87;1.77;;;;;;;;;;5020868;28;20205;-80
2023/03/27 11:40:34;;;;;;;4.40;1.80;;;;;;;;;;5031697;28;20267;-80
2023/03/27 11:43:02;;;;;;;3.20;1.50;;;;;;;;;;5019987;28;20205;-80
2023/03/27 11:45:33;;;;;;;5.77;1.90;;;;;;;;;;4995622;28;20189;-80
2023/03/27 11:47:59;;;;;;;4.40;1.80;;;;;;;;;;5021181;28;20300;-78
2023/03/27 11:50:34;;;;;;;5.10;1.50;;;;;;;;;;4994631;28;20581;-77
2023/03/27 11:53:07;;;;;;;4.43;1.83;;;;;;;;;;4994809;28;20201;-77
2023/03/27 11:56:12;;;;;;;7.30;2.00;;;;;;;;;;5016690;28;20537;-77
2023/03/27 11:58:43;;;;;;;5.33;1.90;;;;;;;;;;5009310;28;20268;-77
2023/03/27 12:01:11;;;;;;;6.17;1.63;;;;;;;;;;4992754;28;20219;-77
2023/03/27 12:03:41;;;;;;;3.33;1.63;;;;;;;;;;5015587;28;20186;-77
2023/03/27 12:06:21;;;;;;;2.23;1.47;;;;;;;;;;5013986;28;20240;-78
2023/03/27 12:08:50;;;;;;;3.83;1.70;;;;;;;;;;5031162;28;20189;-78
2023/03/27 12:11:18;;;;;;;4.47;1.63;;;;;;;;;;5021147;28;20209;-77
2023/03/27 12:13:52;;;;;;;3.53;1.50;;;;;;;;;;5016399;28;20247;-77
2023/03/27 12:16:30;;;;;;;4.03;1.50;;;;;;;;;;5006222;28;20209;-77
2023/03/27 12:19:19;;;;;;;2.17;1.30;;;;;;;;;;4999036;28;20218;-77
2023/03/27 12:21:57;;;;;;;2.97;1.50;;;;;;;;;;5031738;28;20189;-77
2023/03/27 12:24:35;;;;;;;2.80;1.43;;;;;;;;;;5005332;28;20183;-77
2023/03/27 12:27:33;;;;;;;3.20;1.60;;;;;;;;;;5030712;28;20217;-77
2023/03/27 12:30:25;;;;;;;4.70;2.10;;;;;;;;;;5014268;28;20237;-77
2023/03/27 12:33:10;;;;;;;3.83;1.90;;;;;;;;;;5016643;28;20554;-77
2023/03/27 12:35:44;;;;;;;3.43;1.60;;;;;;;;;;5010198;28;20710;-77
2023/03/27 12:38:21;;;;;;;5.00;1.83;;;;;;;;;;5012862;28;20718;-77
2023/03/27 12:40:59;;;;;;;5.17;1.70;;;;;;;;;;5035078;28;20198;-77
2023/03/27 12:43:28;;;;;;;3.17;1.80;;;;;;;;;;5009246;28;20791;-78
2023/03/27 12:46:11;;;;;;;3.00;1.70;;;;;;;;;;4999737;28;20182;-77
2023/03/27 12:48:47;;;;;;;2.17;1.63;;;;;;;;;;5014321;28;20653;-77
2023/03/27 12:51:18;;;;;;;2.83;1.87;;;;;;;;;;5016888;28;20212;-77
2023/03/27 12:53:50;;;;;;;1.77;1.43;;;;;;;;;;5006662;28;20205;-77
2023/03/27 12:56:16;;;;;;;2.00;1.60;;;;;;;;;;4996868;28;20715;-76
2023/03/27 12:58:46;;;;;;;2.80;1.40;;;;;;;;;;5023713;28;20726;-77
2023/03/27 13:01:29;;;;;;;2.23;1.30;;;;;;;;;;5020955;28;20281;-77
2023/03/27 13:04:04;;;;;;;1.53;1.23;;;;;;;;;;5032970;28;20213;-77
2023/03/27 13:06:35;;;;;;;2.30;1.30;;;;;;;;;;5004823;28;20761;-77
2023/03/27 13:09:08;;;;;;;2.50;1.47;;;;;;;;;;5007932;28;20556;-77
2023/03/27 13:11:48;;;;;;;4.80;1.40;;;;;;;;;;4990526;28;20234;-77
2023/03/27 13:14:15;;;;;;;4.20;1.50;;;;;;;;;;5009217;28;20198;-77
2023/03/27 13:16:55;;;;;;;3.20;1.50;;;;;;;;;;5019901;28;20245;-76
2023/03/27 13:19:27;;;;;;;3.50;2.03;;;;;;;;;;5014895;28;20182;-76
2023/03/27 13:22:00;;;;;;;3.83;2.00;;;;;;;;;;5012037;28;20174;-77
2023/03/27 13:24:41;;;;;;;3.60;2.00;;;;;;;;;;5031257;28;20205;-77
2023/03/27 13:27:09;;;;;;;3.80;2.50;;;;;;;;;;5012374;28;20276;-77
2023/03/27 13:29:38;;;;;;;3.30;2.50;;;;;;;;;;5018660;28;20250;-77
2023/03/27 13:32:31;;;;;;;3.73;2.50;;;;;;;;;;5014400;28;20192;-76
2023/03/27 13:35:26;;;;;;;4.93;2.77;;;;;;;;;;5010815;28;20191;-77
2023/03/27 13:37:56;;;;;;;3.13;2.70;;;;;;;;;;5041341;28;20554;-76
2023/03/27 13:40:29;;;;;;;4.37;2.77;;;;;;;;;;5005570;28;20201;-77
2023/03/27 13:43:21;;;;;;;5.23;2.80;;;;;;;;;;5012207;28;20498;-77
2023/03/27 13:45:56;;;;;;;3.70;2.70;;;;;;;;;;5011780;28;20250;-76
2023/03/27 13:49:12;;;;;;;4.27;2.77;;;;;;;;;;5004178;28;20185;-77
2023/03/27 13:52:06;;;;;;;4.03;2.53;;;;;;;;;;5010187;28;20209;-77
2023/03/27 13:54:52;;;;;;;4.00;2.60;;;;;;;;;;5019183;28;20251;-77
2023/03/27 13:57:37;;;;;;;3.83;2.33;;;;;;;;;;4998196;28;20311;-77
2023/03/27 14:00:37;;;;;;;3.00;1.90;;;;;;;;;;4997397;28;20232;-77
2023/03/27 14:03:33;;;;;;;3.37;1.83;;;;;;;;;;4988738;28;20198;-77
2023/03/27 14:06:03;;;;;;;2.00;1.60;;;;;;;;;;4998140;28;20213;-77
2023/03/27 14:08:52;;;;;;;2.00;1.30;;;;;;;;;;5016806;28;20220;-78
2023/03/27 14:12:02;;;;;;;2.13;1.53;;;;;;;;;;5032738;28;20273;-78
2023/03/27 14:15:07;;;;;;;1.40;1.30;;;;;;;;;;5009492;28;20229;-78
2023/03/27 14:17:52;;;;;;;3.93;1.40;;;;;;;;;;5023863;28;20707;-78
2023/03/27 14:20:26;;;;;;;2.00;1.30;;;;;;;;;;5009923;28;20265;-77
2023/03/27 14:22:58;;;;;;;2.73;1.30;;;;;;;;;;5017224;28;20182;-77
2023/03/27 14:25:33;;;;;;;3.53;1.60;;;;;;;;;;5009321;28;20180;-78
2023/03/27 14:28:34;;;;;;;5.33;1.60;;;;;;;;;;5011414;28;20192;-78
2023/03/27 14:31:05;;;;;;;1.63;1.13;;;;;;;;;;4995319;28;20221;-77
2023/03/27 14:33:56;;;;;;;3.20;1.67;;;;;;;;;;5027121;28;20215;-78
2023/03/27 14:36:25;;;;;;;2.60;1.30;;;;;;;;;;5012857;28;20293;-78
2023/03/27 14:38:52;;;;;;;2.60;1.40;;;;;;;;;;5023472;28;20237;-78
2023/03/27 14:41:31;;;;;;;2.60;1.40;;;;;;;;;;5000074;28;20301;-78
2023/03/27 14:44:02;;;;;;;3.10;1.43;;;;;;;;;;5036741;28;20194;-77
2023/03/27 14:46:32;;;;;;;3.40;1.17;;;;;;;;;;5000479;28;20732;-78
2023/03/27 14:49:02;;;;;;;1.53;1.30;;;;;;;;;;5014616;28;20194;-78
2023/03/27 14:51:40;;;;;;;2.87;1.40;;;;;;;;;;5016073;28;20588;-78
2023/03/27 14:54:13;;;;;;;2.53;1.20;;;;;;;;;;5004728;28;20182;-78
2023/03/27 14:56:49;;;;;;;2.17;1.17;;;;;;;;;;5019479;28;20207;-78
2023/03/27 14:59:41;;;;;;;2.27;1.20;;;;;;;;;;5035198;28;20909;-78
2023/03/27 15:02:14;;;;;;;3.53;1.40;;;;;;;;;;5016436;28;20273;-78
2023/03/27 15:04:41;;;;;;;4.00;1.20;;;;;;;;;;5033881;28;20204;-77
2023/03/27 15:07:17;;;;;;;3.63;1.30;;;;;;;;;;5017068;28;20260;-78
2023/03/27 15:10:02;;;;;;;2.87;1.40;;;;;;;;;;5020164;28;20217;-78
2023/03/27 15:12:57;;;;;;;1.90;1.10;;;;;;;;;;5026104;28;20181;-77
2023/03/27 15:15:24;;;;;;;4.97;1.60;;;;;;;;;;5015764;28;20194;-77
2023/03/27 15:17:53;;;;;;;2.40;1.43;;;;;;;;;;5039374;28;20581;-77
2023/03/27 15:20:23;;;;;;;3.27;1.47;;;;;;;;;;4996467;28;20668;-77
2023/03/27 15:22:53;;;;;;;2.77;1.20;;;;;;;;;;5031507;28;20641;-77